createdAt,value
2022-11-04T00:02:50.579Z,545.43
2022-11-04T00:08:22.263Z,544.56
2022-11-04T00:13:53.820Z,544.03
2022-11-04T00:19:25.934Z,543.24
2022-11-04T00:24:57.384Z,542.36
2022-11-04T00:30:28.887Z,541.31
2022-11-04T00:36:00.643Z,540.78
2022-11-04T00:41:32.333Z,540.78
2022-11-04T00:47:04.135Z,540.26
2022-11-04T00:52:35.960Z,540.43
2022-11-04T00:58:07.737Z,539.38
2022-11-04T01:03:39.724Z,538.94
2022-11-04T01:09:11.249Z,538.06
2022-11-04T01:14:42.893Z,537.19
2022-11-04T01:20:14.506Z,536.49
2022-11-04T01:25:46.202Z,535.78
2022-11-04T01:31:17.965Z,535.61
2022-11-04T01:36:49.651Z,535.08
2022-11-04T01:42:21.041Z,535.08
2022-11-04T01:47:52.592Z,535.61
2022-11-04T01:53:24.178Z,536.31
2022-11-04T01:58:55.766Z,536.49
2022-11-04T02:04:27.418Z,537.19
2022-11-04T02:09:59.155Z,537.36
2022-11-04T02:15:31.075Z,537.36
2022-11-04T02:21:02.727Z,537.01
2022-11-04T02:26:34.356Z,537.19
2022-11-04T02:32:05.835Z,537.54
2022-11-04T02:37:37.524Z,537.36
2022-11-04T02:43:09.351Z,536.84
2022-11-04T02:48:40.673Z,536.31
2022-11-04T02:54:12.394Z,536.13
2022-11-04T02:59:44.006Z,535.96
2022-11-04T03:05:15.503Z,535.78
2022-11-04T03:10:46.947Z,536.31
2022-11-04T03:16:18.176Z,536.84
2022-11-04T03:21:49.633Z,537.19
2022-11-04T03:27:20.806Z,537.54
2022-11-04T03:32:58.291Z,538.06
2022-11-04T03:38:29.789Z,537.89
2022-11-04T03:44:01.440Z,537.89
2022-11-04T03:49:32.947Z,537.71
2022-11-04T03:55:04.511Z,537.71
2022-11-04T04:00:36.291Z,537.89
2022-11-04T04:06:07.858Z,537.89
2022-11-04T04:11:39.116Z,538.77
2022-11-04T04:22:42.045Z,539.73
2022-11-04T04:28:19.328Z,539.38
2022-11-04T04:33:50.616Z,538.94
2022-11-04T04:39:22.150Z,539.20
2022-11-04T04:44:53.935Z,539.03
2022-11-04T04:50:25.563Z,539.55
2022-11-04T04:55:56.807Z,539.03
2022-11-04T05:01:28.373Z,538.59
2022-11-04T05:06:59.442Z,537.89
2022-11-04T05:12:30.971Z,537.71
2022-11-04T05:18:02.580Z,537.54
2022-11-04T05:23:34.082Z,537.01
2022-11-04T05:29:05.625Z,537.01
2022-11-04T05:34:36.908Z,537.36
2022-11-04T05:40:08.582Z,537.36
2022-11-04T05:45:39.856Z,537.01
2022-11-04T05:51:11.152Z,536.84
2022-11-04T05:56:42.511Z,536.49
2022-11-04T06:02:14.263Z,536.13
2022-11-04T06:07:45.569Z,535.78
2022-11-04T06:13:16.829Z,535.08
2022-11-04T06:18:48.118Z,535.26
2022-11-04T06:24:21.223Z,534.47
2022-11-04T06:29:52.657Z,533.24
2022-11-04T06:35:30.055Z,533.42
2022-11-04T06:41:01.735Z,533.94
2022-11-04T06:46:33.165Z,533.42
2022-11-04T06:52:04.424Z,533.42
2022-11-04T06:57:37.284Z,532.72
2022-11-04T07:03:09.215Z,533.24
2022-11-04T07:14:09.796Z,534.47
2022-11-04T07:19:41.454Z,534.47
2022-11-04T07:25:13.236Z,534.64
2022-11-04T07:30:44.923Z,533.94
2022-11-04T07:36:16.261Z,532.89
2022-11-04T07:41:48.192Z,531.84
2022-11-04T07:52:48.780Z,531.14
2022-11-04T08:03:49.913Z,530.17
2022-11-04T08:14:50.390Z,529.65
2022-11-04T08:20:21.995Z,530.17
2022-11-04T08:25:53.601Z,530.52
2022-11-04T08:36:54.420Z,532.19
2022-11-04T08:42:26.235Z,533.24
2022-11-04T08:48:01.388Z,533.24
2022-11-04T09:09:57.966Z,534.82
2022-11-04T09:15:29.631Z,534.91
2022-11-04T09:21:00.915Z,535.43
2022-11-04T09:26:32.852Z,535.78
2022-11-04T09:32:04.693Z,535.96
2022-11-04T09:43:05.332Z,536.31
2022-11-04T09:48:37.251Z,535.96
2022-11-04T09:54:08.920Z,535.61
2022-11-04T09:59:40.840Z,535.43
2022-11-04T10:10:42.219Z,535.78
2022-11-04T10:16:13.784Z,536.13
2022-11-04T10:21:45.785Z,536.66
2022-11-04T10:27:17.203Z,536.66
2022-11-04T10:32:48.539Z,536.66
2022-11-04T10:43:49.471Z,537.36
2022-11-04T10:54:50.820Z,538.59
2022-11-04T11:00:22.576Z,539.03
2022-11-04T11:05:54.177Z,538.94
2022-11-04T11:11:26.128Z,538.94
2022-11-04T11:22:27.556Z,539.03
2022-11-04T11:33:28.780Z,538.77
2022-11-04T11:39:00.644Z,538.06
2022-11-04T11:44:32.422Z,538.06
2022-11-04T11:50:04.282Z,537.71
2022-11-04T11:52:16.613Z,536.66
2022-11-04T12:03:20.810Z,537.01
2022-11-04T12:14:23.214Z,537.89
2022-11-04T12:19:54.539Z,537.71
2022-11-04T12:25:25.926Z,537.71
2022-11-04T12:30:57.953Z,537.71
2022-11-04T12:36:29.614Z,538.41
2022-11-04T12:47:33.267Z,539.38
2022-11-04T12:53:05.190Z,538.59
2022-11-04T12:58:37.051Z,537.19
2022-11-04T13:04:09.239Z,535.96
2022-11-04T13:09:41.026Z,534.82
2022-11-04T13:15:12.697Z,534.64
2022-11-04T13:20:44.590Z,534.64
2022-11-04T13:26:16.390Z,534.47
2022-11-04T13:31:48.044Z,534.12
2022-11-04T13:37:19.847Z,533.94
2022-11-04T13:42:51.792Z,533.77
2022-11-04T13:48:23.238Z,533.42
2022-11-04T13:53:54.914Z,533.59
2022-11-04T13:59:26.837Z,533.42
2022-11-04T14:04:58.301Z,533.42
2022-11-04T14:10:29.842Z,533.24
2022-11-04T14:16:01.585Z,533.07
2022-11-04T14:21:33.364Z,532.89
2022-11-04T14:27:05.041Z,532.89
2022-11-04T14:32:36.825Z,532.72
2022-11-04T14:38:08.535Z,532.72
2022-11-04T14:43:40.280Z,533.24
2022-11-04T14:49:12.138Z,533.24
2022-11-04T14:54:43.741Z,533.59
2022-11-04T15:00:15.513Z,533.24
2022-11-04T15:11:18.561Z,532.72
2022-11-04T15:16:49.860Z,532.37
2022-11-04T15:27:50.792Z,532.19
2022-11-04T15:33:22.577Z,531.84
2022-11-04T15:39:00.284Z,532.01
2022-11-04T15:44:31.975Z,531.49
2022-11-04T15:50:03.836Z,531.31
2022-11-04T15:55:41.448Z,530.96
2022-11-04T16:03:25.790Z,530.00
2022-11-04T16:08:57.512Z,530.35
2022-11-04T16:14:28.908Z,530.35
2022-11-04T16:20:00.819Z,530.35
2022-11-04T16:25:32.713Z,530.35
2022-11-04T16:31:04.560Z,529.82
2022-11-04T16:36:36.329Z,529.47
2022-11-04T16:42:07.956Z,529.30
2022-11-04T16:47:40.023Z,528.95
2022-11-04T16:53:17.283Z,528.77
2022-11-04T16:58:49.080Z,527.55
2022-11-04T17:04:20.942Z,526.67
2022-11-04T17:09:53.591Z,526.14
2022-11-04T17:15:25.447Z,525.88
2022-11-04T17:20:57.223Z,525.71
2022-11-04T17:26:29.159Z,525.18
2022-11-04T17:32:00.864Z,524.83
2022-11-04T17:37:32.744Z,524.13
2022-11-04T17:43:10.310Z,523.43
2022-11-04T17:54:05.620Z,522.73
2022-11-04T18:07:27.559Z,521.06
2022-11-04T18:12:59.350Z,520.71
2022-11-04T18:18:31.162Z,520.36
2022-11-04T18:24:02.833Z,520.19
2022-11-04T18:29:34.216Z,520.01
2022-11-04T18:35:06.196Z,519.66
2022-11-04T18:40:37.928Z,518.96
2022-11-04T18:46:09.727Z,518.26
2022-11-04T18:51:41.614Z,517.56
2022-11-04T18:57:13.273Z,516.60
2022-11-04T19:02:46.211Z,516.25
2022-11-04T19:08:18.015Z,516.25
2022-11-04T19:13:55.108Z,516.25
2022-11-04T19:19:26.675Z,516.43
2022-11-04T19:24:58.372Z,515.90
2022-11-04T19:30:31.318Z,515.20
2022-11-04T19:36:02.975Z,514.33
2022-11-04T19:41:34.510Z,513.45
2022-11-04T19:47:06.372Z,512.31
2022-11-04T19:52:38.354Z,511.79
2022-11-04T19:58:10.480Z,510.74
2022-11-04T20:03:41.883Z,510.04
2022-11-04T20:14:45.654Z,509.51
2022-11-04T20:20:17.270Z,508.90
2022-11-04T20:25:49.364Z,508.38
2022-11-04T20:31:21.148Z,507.33
2022-11-04T20:36:52.817Z,506.45
2022-11-04T20:42:24.746Z,505.40
2022-11-04T20:47:56.175Z,504.70
2022-11-04T20:53:28.250Z,504.36
2022-11-04T20:59:00.213Z,503.92
2022-11-04T21:10:01.371Z,503.04
2022-11-04T21:15:32.810Z,502.69
2022-11-04T21:21:04.924Z,502.17
2022-11-04T21:26:37.154Z,501.65
2022-11-04T21:32:08.743Z,501.30
2022-11-04T21:48:44.235Z,499.90
2022-11-04T21:54:17.802Z,499.90
2022-11-04T22:05:19.093Z,500.07
2022-11-04T22:10:51.308Z,500.07
2022-11-04T22:16:23.251Z,499.90
2022-11-04T22:21:54.876Z,499.55
2022-11-04T22:32:58.389Z,499.55
2022-11-04T22:38:29.911Z,499.29
2022-11-04T22:44:01.807Z,499.11
2022-11-04T22:49:33.349Z,498.59
2022-11-04T22:55:05.413Z,498.41
2022-11-04T23:00:36.979Z,498.06
2022-11-04T23:06:08.911Z,497.71
2022-11-04T23:11:41.150Z,497.37
2022-11-04T23:17:12.896Z,496.84
2022-11-04T23:22:44.853Z,496.49
2022-11-04T23:28:16.548Z,496.32
2022-11-04T23:33:48.290Z,496.14
2022-11-04T23:39:20.217Z,495.62
2022-11-04T23:44:51.948Z,495.36
2022-11-04T23:55:58.020Z,494.31
